Time;durP1;ratioP1;P1;durP2;ratioP2;P2;SDS_P1;SDS_P2;PMS_P1;PMS_P2;Temp;Humidity;BMP_temperature;BMP_pressure;BME280_temperature;BME280_humidity;BME280_pressure;Samples;Min_cycle;Max_cycle;Signal;HPM_P1;HPM_P2
2023/05/17 11:15:09;;;;;;;9.73;2.60;;;;;;;28.50;26.90;102033.66;709133;27;20570;-78
2023/05/17 11:15:32;;;;;;;8.38;2.28;;;;;;;28.91;24.81;102033.41;704435;28;1147;-77
2023/05/17 11:16:03;;;;;;;7.25;2.17;;;;;;;29.31;23.77;102027.75;701505;28;1243;-77
2023/05/17 11:16:33;;;;;;;6.22;2.17;;;;;;;29.56;23.22;102030.53;698856;28;1178;-79
2023/05/17 11:16:55;;;;;;;6.70;2.30;;;;;;;29.62;22.12;102019.56;704379;28;854;-78
2023/05/17 11:17:27;;;;;;;6.20;2.35;;;;;;;29.75;21.82;102022.72;701502;28;1258;-78
2023/05/17 11:17:49;;;;;;;6.65;2.20;;;;;;;29.87;21.97;102028.66;698728;28;1421;-79
2023/05/17 11:18:10;;;;;;;7.07;2.22;;;;;;;29.86;21.38;102011.63;696344;28;1125;-79
2023/05/17 11:19:05;;;;;;;6.13;2.10;;;;;;;29.18;21.82;102041.56;698576;28;1246;-79
2023/05/17 11:19:25;;;;;;;5.68;2.05;;;;;;;28.31;22.37;102026.13;704258;28;1167;-78
2023/05/17 11:20:04;;;;;;;5.65;2.00;;;;;;;27.60;22.91;102033.22;698695;28;1087;-79
2023/05/17 11:20:25;;;;;;;7.88;2.08;;;;;;;26.77;23.66;102036.78;698452;28;1067;-78
2023/05/17 11:21:06;;;;;;;7.73;2.17;;;;;;;26.19;23.90;102028.94;698720;28;1031;-79
2023/05/17 11:21:29;;;;;;;8.18;2.40;;;;;;;25.38;25.29;102019.53;698560;28;1147;-78
2023/05/17 11:21:49;;;;;;;8.40;2.40;;;;;;;24.94;25.74;102019.22;698628;28;818;-78
2023/05/17 11:22:11;;;;;;;7.67;2.27;;;;;;;24.61;25.92;102028.50;698153;28;1280;-78
2023/05/17 11:22:38;;;;;;;7.38;2.20;;;;;;;24.26;25.97;102040.34;695771;28;1189;-79
2023/05/17 11:23:06;;;;;;;6.00;2.00;;;;;;;23.72;26.33;102031.03;698815;28;901;-78
2023/05/17 11:23:30;;;;;;;5.57;2.20;;;;;;;23.33;26.97;102035.69;698635;28;1087;-79
2023/05/17 11:23:57;;;;;;;5.60;2.30;;;;;;;22.82;26.78;102047.41;698792;28;863;-79
2023/05/17 11:24:41;;;;;;;5.85;2.20;;;;;;;22.21;27.31;102046.59;698557;28;1866;-79
2023/05/17 11:25:12;;;;;;;6.65;1.90;;;;;;;21.94;27.60;102043.06;698684;28;1155;-79
2023/05/17 11:25:35;;;;;;;6.40;1.90;;;;;;;22.08;27.69;102027.09;701379;28;1187;-79
2023/05/17 11:26:14;;;;;;;5.47;1.90;;;;;;;22.85;26.92;102039.41;704423;28;834;-79
2023/05/17 11:26:39;;;;;;;5.00;2.10;;;;;;;23.62;26.82;102029.28;706919;28;1168;-78
2023/05/17 11:27:01;;;;;;;5.55;2.15;;;;;;;24.26;26.00;102042.16;704162;28;1201;-79
2023/05/17 11:27:26;;;;;;;6.10;2.20;;;;;;;24.88;25.16;102036.16;705267;28;1060;-79
2023/05/17 11:27:48;;;;;;;5.63;2.28;;;;;;;25.75;24.57;102034.97;704165;28;1213;-79
2023/05/17 11:28:20;;;;;;;5.28;2.05;;;;;;;26.95;24.00;102030.19;701418;28;1373;-78
2023/05/17 11:28:41;;;;;;;5.25;1.83;;;;;;;27.70;23.53;102023.19;701267;28;1058;-78
2023/05/17 11:29:06;;;;;;;6.07;2.17;;;;;;;28.22;22.57;102030.81;701455;28;1153;-79
2023/05/17 11:29:28;;;;;;;6.00;2.38;;;;;;;28.59;22.55;102021.78;703953;28;1173;-77
2023/05/17 11:29:50;;;;;;;5.97;2.40;;;;;;;28.86;21.97;102021.91;701526;28;889;-78
2023/05/17 11:30:25;;;;;;;7.05;2.50;;;;;;;29.25;21.49;102026.09;701428;28;992;-79
2023/05/17 11:30:52;;;;;;;8.40;2.40;;;;;;;29.46;21.10;102035.34;698582;28;1138;-79
2023/05/17 11:31:13;;;;;;;6.88;2.30;;;;;;;29.16;20.69;102035.34;696507;28;997;-78
2023/05/17 11:31:35;;;;;;;6.97;2.45;;;;;;;28.69;20.73;102019.69;698908;28;1104;-79
2023/05/17 11:31:55;;;;;;;6.80;2.25;;;;;;;28.21;21.14;102029.91;696486;28;1093;-79
2023/05/17 11:32:16;;;;;;;6.75;2.10;;;;;;;27.67;21.76;102024.16;698685;28;1138;-79
2023/05/17 11:32:37;;;;;;;5.90;2.00;;;;;;;27.15;21.94;102036.91;703990;28;1171;-78
2023/05/17 11:33:00;;;;;;;6.57;2.28;;;;;;;26.67;22.47;102039.66;701697;28;906;-79
2023/05/17 11:33:37;;;;;;;6.78;2.40;;;;;;;25.88;23.40;102027.69;704114;28;1133;-78
2023/05/17 11:34:01;;;;;;;5.45;2.13;;;;;;;25.62;23.83;102036.97;701479;28;861;-78
2023/05/17 11:34:23;;;;;;;5.10;2.10;;;;;;;25.36;23.86;102035.56;699107;28;1064;-79
2023/05/17 11:34:51;;;;;;;5.18;2.20;;;;;;;25.13;24.37;102036.78;702063;28;1909;-79
2023/05/17 11:35:13;;;;;;;3.97;2.38;;;;;;;24.90;24.31;102031.72;700138;28;1141;-79
2023/05/17 11:35:38;;;;;;;5.50;2.40;;;;;;;24.69;24.54;102031.06;698595;28;1261;-79
2023/05/17 11:36:05;;;;;;;5.25;2.08;;;;;;;24.74;24.45;102039.00;701514;28;1389;-79
2023/05/17 11:36:26;;;;;;;4.93;2.10;;;;;;;24.87;24.50;102040.63;698378;28;1377;-79
2023/05/17 11:36:54;;;;;;;5.47;2.20;;;;;;;25.06;24.18;102045.72;697827;28;1111;-79
2023/05/17 11:37:25;;;;;;;6.97;2.37;;;;;;;24.97;24.33;102041.41;698141;28;1155;-79
2023/05/17 11:38:15;;;;;;;7.75;2.20;;;;;;;25.00;24.54;102045.81;703133;28;936;-80
2023/05/17 11:38:36;;;;;;;7.28;2.30;;;;;;;25.32;24.41;102033.84;705184;28;1214;-79
2023/05/17 11:39:10;;;;;;;6.30;2.27;;;;;;;26.12;24.04;102042.44;704489;28;844;-80
2023/05/17 11:39:31;;;;;;;5.70;1.80;;;;;;;26.72;23.52;102044.91;699752;28;1110;-80
2023/05/17 11:40:05;;;;;;;6.93;2.07;;;;;;;27.51;22.43;102053.09;701812;28;1293;-78
2023/05/17 11:40:29;;;;;;;6.40;2.30;;;;;;;28.07;21.64;102041.03;704662;28;1482;-79
2023/05/17 11:40:55;;;;;;;5.70;2.20;;;;;;;28.61;21.32;102027.97;705101;28;890;-77
2023/05/17 11:41:20;;;;;;;5.25;2.13;;;;;;;29.09;20.79;102025.72;703645;28;1073;-78
2023/05/17 11:41:49;;;;;;;4.53;1.80;;;;;;;29.70;20.21;102046.25;702138;28;1066;-77
2023/05/17 11:42:24;;;;;;;7.50;1.90;;;;;;;30.23;20.28;102036.38;701727;28;1195;-77
2023/05/17 11:42:46;;;;;;;6.93;2.20;;;;;;;30.43;20.23;102034.81;702935;28;1385;-78
2023/05/17 11:43:18;;;;;;;3.85;2.00;;;;;;;30.67;19.89;102033.03;701601;28;1369;-77
2023/05/17 11:43:44;;;;;;;6.03;1.90;;;;;;;30.83;19.50;102036.03;702287;28;1145;-78
2023/05/17 11:44:05;;;;;;;5.85;1.88;;;;;;;30.97;19.49;102034.63;702344;28;1077;-77
2023/05/17 11:44:31;;;;;;;5.23;2.10;;;;;;;31.10;19.43;102041.28;701957;28;1263;-77
2023/05/17 11:44:55;;;;;;;4.43;1.90;;;;;;;31.01;19.43;102031.75;696784;28;928;-77
2023/05/17 11:45:17;;;;;;;5.22;1.85;;;;;;;30.77;19.36;102030.88;696848;28;1385;-77
2023/05/17 11:45:49;;;;;;;5.80;2.08;;;;;;;30.22;19.36;102046.28;699288;28;1293;-77
2023/05/17 11:46:18;;;;;;;7.03;2.63;;;;;;;29.24;19.71;102022.56;696108;28;1166;-77
2023/05/17 11:46:40;;;;;;;7.35;2.70;;;;;;;28.57;20.23;102034.34;699252;28;1216;-78
2023/05/17 11:47:05;;;;;;;7.57;2.42;;;;;;;27.89;20.56;102029.84;702419;28;1285;-78
2023/05/17 11:47:26;;;;;;;7.07;2.20;;;;;;;27.16;21.44;102038.72;701322;28;983;-78
2023/05/17 11:47:47;;;;;;;5.72;2.10;;;;;;;26.60;21.93;102034.47;701310;28;1374;-77
2023/05/17 11:48:09;;;;;;;5.30;2.20;;;;;;;26.06;22.24;102033.63;701515;28;1252;-78
2023/05/17 11:48:30;;;;;;;5.47;2.20;;;;;;;25.51;22.64;102033.59;695581;28;1872;-78
2023/05/17 11:48:52;;;;;;;5.43;2.08;;;;;;;25.10;23.35;102039.50;694554;28;779;-77
2023/05/17 11:49:13;;;;;;;5.18;1.90;;;;;;;24.61;23.42;102038.25;693348;28;1181;-77
2023/05/17 11:49:37;;;;;;;4.50;1.80;;;;;;;24.13;23.79;102033.34;693112;28;1336;-78
2023/05/17 11:50:02;;;;;;;4.82;1.80;;;;;;;23.71;24.49;102044.34;696108;28;862;-78
2023/05/17 11:50:23;;;;;;;5.85;2.17;;;;;;;23.31;25.13;102045.47;695971;28;1392;-78
2023/05/17 11:50:46;;;;;;;4.82;2.00;;;;;;;23.00;25.46;102031.41;695836;28;1295;-78
2023/05/17 11:51:07;;;;;;;5.90;2.10;;;;;;;22.83;25.98;102052.75;698001;28;1098;-77
2023/05/17 11:51:30;;;;;;;6.70;2.25;;;;;;;22.48;26.16;102026.22;698744;28;1066;-77
2023/05/17 11:51:52;;;;;;;6.03;2.20;;;;;;;22.27;26.30;102049.28;698921;28;787;-78
2023/05/17 11:52:15;;;;;;;4.75;2.15;;;;;;;21.99;26.73;102043.94;698582;28;1119;-77
2023/05/17 11:52:39;;;;;;;4.63;1.90;;;;;;;21.74;26.50;102043.91;698079;28;1329;-78
2023/05/17 11:53:01;;;;;;;5.00;2.00;;;;;;;21.52;26.93;102027.97;701525;28;911;-78
2023/05/17 11:53:23;;;;;;;4.72;1.85;;;;;;;21.31;27.04;102037.59;701376;28;1062;-78
2023/05/17 11:53:46;;;;;;;5.55;2.00;;;;;;;21.16;27.08;102032.25;701351;28;1089;-78
2023/05/17 11:54:08;;;;;;;7.03;2.20;;;;;;;21.04;27.29;102038.38;700545;28;1374;-78
2023/05/17 11:54:30;;;;;;;8.57;2.38;;;;;;;21.05;27.83;102054.31;700064;28;1361;-78
2023/05/17 11:54:51;;;;;;;7.70;2.17;;;;;;;21.06;27.82;102042.81;702821;28;1925;-79
2023/05/17 11:55:14;;;;;;;5.97;2.15;;;;;;;21.37;27.77;102042.94;701395;28;1188;-79
2023/05/17 11:55:46;;;;;;;7.05;2.40;;;;;;;22.04;27.19;102042.16;698687;28;1101;-78
2023/05/17 11:56:07;;;;;;;6.50;2.60;;;;;;;22.76;26.80;102043.00;695996;28;1138;-78
2023/05/17 11:56:38;;;;;;;6.22;2.40;;;;;;;23.50;26.16;102031.16;696297;28;1118;-79
2023/05/17 11:57:01;;;;;;;7.25;2.13;;;;;;;24.32;25.59;102026.97;702179;28;908;-78
2023/05/17 11:57:30;;;;;;;6.80;2.20;;;;;;;25.32;24.54;102039.19;704738;28;1237;-78
2023/05/17 11:57:53;;;;;;;6.20;2.20;;;;;;;25.92;23.84;102037.41;701932;28;1247;-78
2023/05/17 11:58:15;;;;;;;6.50;2.10;;;;;;;26.52;23.11;102042.63;702259;28;1932;-78
2023/05/17 11:58:36;;;;;;;6.72;2.30;;;;;;;26.92;22.24;102032.94;698916;28;1021;-78
2023/05/17 11:58:58;;;;;;;5.93;2.28;;;;;;;27.03;22.01;102025.53;702283;28;1272;-80
2023/05/17 11:59:19;;;;;;;5.72;2.10;;;;;;;27.32;21.68;102045.47;705729;28;1091;-79
2023/05/17 11:59:40;;;;;;;5.15;2.03;;;;;;;27.52;21.45;102036.09;707579;28;1130;-78
2023/05/17 12:00:04;;;;;;;6.00;2.35;;;;;;;27.72;21.34;102029.41;705933;28;1162;-78
2023/05/17 12:00:33;;;;;;;6.85;2.63;;;;;;;28.10;20.97;102027.56;705559;28;1105;-79
2023/05/17 12:00:57;;;;;;;5.50;2.40;;;;;;;28.38;21.04;102021.44;703068;28;833;-79
2023/05/17 12:01:18;;;;;;;5.00;2.20;;;;;;;28.63;21.04;102026.13;702550;28;1995;-79
2023/05/17 12:01:46;;;;;;;5.20;2.20;;;;;;;28.76;20.50;102021.28;702393;28;1152;-79
2023/05/17 12:02:06;;;;;;;6.10;2.03;;;;;;;28.97;20.26;102035.03;696456;28;1248;-79
2023/05/17 12:02:31;;;;;;;6.07;2.00;;;;;;;29.09;19.71;102033.78;696447;28;1077;-77
2023/05/17 12:02:52;;;;;;;6.05;2.10;;;;;;;29.10;19.11;102036.44;699136;28;1270;-79
2023/05/17 12:03:18;;;;;;;5.90;2.10;;;;;;;28.89;18.79;102032.56;699212;28;1016;-78
2023/05/17 12:03:38;;;;;;;5.10;2.10;;;;;;;28.44;18.74;102031.13;699113;28;964;-78
2023/05/17 12:03:59;;;;;;;6.55;2.00;;;;;;;27.91;19.10;102022.66;702476;28;756;-79
2023/05/17 12:04:24;;;;;;;7.83;2.10;;;;;;;27.40;19.43;102015.81;702044;28;1096;-79
2023/05/17 12:04:45;;;;;;;6.30;1.77;;;;;;;27.09;19.70;102021.88;701896;28;1856;-79
2023/05/17 12:05:08;;;;;;;7.90;2.00;;;;;;;27.00;20.52;102032.75;701814;28;1253;-80
2023/05/17 12:05:28;;;;;;;7.15;2.08;;;;;;;27.02;21.03;102031.81;701725;28;1092;-78
2023/05/17 12:05:59;;;;;;;9.23;2.23;;;;;;;27.30;21.06;102028.53;701837;28;1225;-79
2023/05/17 12:06:20;;;;;;;6.40;1.90;;;;;;;27.86;21.15;102027.22;696078;28;1112;-79
2023/05/17 12:06:43;;;;;;;5.90;2.00;;;;;;;28.25;20.90;102028.94;696177;28;1138;-78
2023/05/17 12:07:07;;;;;;;5.53;2.10;;;;;;;28.58;20.91;102014.66;696095;28;1027;-77
2023/05/17 12:07:28;;;;;;;3.22;1.90;;;;;;;28.94;20.36;102025.25;696007;28;1123;-79
2023/05/17 12:07:51;;;;;;;4.53;1.90;;;;;;;29.36;20.49;102028.47;701622;28;1392;-79
2023/05/17 12:08:14;;;;;;;4.60;1.70;;;;;;;29.71;20.09;102015.72;704364;28;1015;-78
2023/05/17 12:08:41;;;;;;;6.65;1.92;;;;;;;30.11;19.82;102016.16;698574;28;1328;-78
2023/05/17 12:09:04;;;;;;;5.40;1.80;;;;;;;30.40;19.23;102024.13;701555;28;1285;-79
2023/05/17 12:09:25;;;;;;;4.40;1.80;;;;;;;30.64;19.31;102022.38;698556;28;1620;-79
2023/05/17 12:09:46;;;;;;;6.32;2.00;;;;;;;30.90;18.75;102024.09;698718;28;1251;-78
2023/05/17 12:10:12;;;;;;;7.75;2.15;;;;;;;31.26;18.71;102019.13;701425;28;979;-79
2023/05/17 12:10:33;;;;;;;8.05;2.15;;;;;;;31.42;18.23;102019.41;701250;28;1035;-79
2023/05/17 12:10:55;;;;;;;6.25;1.98;;;;;;;31.37;18.08;102018.69;696017;28;858;-78
2023/05/17 12:11:18;;;;;;;7.32;2.30;;;;;;;31.34;18.37;102014.31;695905;28;1122;-78
2023/05/17 12:11:40;;;;;;;6.20;2.20;;;;;;;31.31;18.53;102022.53;695717;28;1014;-78
2023/05/17 12:12:03;;;;;;;6.75;2.25;;;;;;;31.27;18.09;102020.88;698786;28;1141;-78
2023/05/17 12:12:24;;;;;;;5.55;2.10;;;;;;;31.22;18.26;102021.06;704238;28;983;-78
2023/05/17 12:12:45;;;;;;;6.22;2.20;;;;;;;31.17;18.91;102023.97;707184;27;1031;-78
2023/05/17 12:13:06;;;;;;;5.72;2.30;;;;;;;31.03;18.98;102011.00;709926;27;1031;-79
2023/05/17 12:13:31;;;;;;;6.32;2.17;;;;;;;30.82;19.15;102018.13;709933;27;1210;-79
2023/05/17 12:13:52;;;;;;;5.45;2.10;;;;;;;30.58;19.41;102033.38;704354;28;849;-79
2023/05/17 12:14:16;;;;;;;5.75;2.00;;;;;;;30.09;19.76;102021.63;701545;28;1170;-79
2023/05/17 12:14:37;;;;;;;6.10;2.10;;;;;;;29.69;19.97;102033.72;704086;28;1151;-77
2023/05/17 12:14:58;;;;;;;6.05;2.05;;;;;;;29.23;20.15;102028.88;701370;28;1977;-79
2023/05/17 12:15:19;;;;;;;6.13;2.20;;;;;;;28.76;20.17;102023.09;700125;28;1353;-79
2023/05/17 12:15:43;;;;;;;6.97;2.20;;;;;;;28.19;20.41;102021.94;702272;28;1091;-79
2023/05/17 12:16:08;;;;;;;6.60;2.10;;;;;;;27.51;20.77;102018.25;702246;28;1086;-78
2023/05/17 12:16:31;;;;;;;5.38;1.90;;;;;;;26.90;20.97;102037.41;698497;28;1055;-79
2023/05/17 12:16:56;;;;;;;5.07;2.20;;;;;;;26.39;21.55;102031.25;698592;28;1256;-79
2023/05/17 12:17:30;;;;;;;4.97;2.13;;;;;;;26.21;21.97;102036.03;698548;28;1041;-79
2023/05/17 12:17:53;;;;;;;5.47;1.90;;;;;;;26.37;21.77;102027.72;693149;28;1386;-79
2023/05/17 12:18:15;;;;;;;6.05;1.90;;;;;;;26.65;22.08;102025.44;692524;28;1201;-79
2023/05/17 12:18:50;;;;;;;6.25;2.10;;;;;;;27.36;21.63;102028.41;692845;28;1359;-78
2023/05/17 12:19:18;;;;;;;4.88;1.92;;;;;;;27.82;20.78;102030.94;698120;28;1095;-79
2023/05/17 12:19:39;;;;;;;4.80;2.00;;;;;;;28.06;20.35;102020.50;701124;28;2021;-79
2023/05/17 12:20:09;;;;;;;4.35;1.90;;;;;;;28.53;20.16;102025.50;698779;28;786;-78
2023/05/17 12:20:31;;;;;;;3.80;1.88;;;;;;;28.68;20.01;102012.56;701145;28;1031;-78
2023/05/17 12:20:56;;;;;;;4.10;1.90;;;;;;;28.98;19.94;102021.56;701390;28;2083;-80
2023/05/17 12:21:19;;;;;;;4.28;2.10;;;;;;;29.18;19.36;102025.44;709693;27;1194;-79
2023/05/17 12:21:39;;;;;;;4.55;1.95;;;;;;;29.40;19.41;102022.06;706888;28;1176;-79
2023/05/17 12:22:13;;;;;;;5.20;2.07;;;;;;;29.73;19.71;102015.63;707243;28;943;-80
2023/05/17 12:22:50;;;;;;;5.80;1.83;;;;;;;29.95;19.16;102029.25;701282;28;1182;-79
2023/05/17 12:23:11;;;;;;;5.43;1.90;;;;;;;29.92;18.83;102019.47;699631;28;1137;-79
2023/05/17 12:23:34;;;;;;;3.97;2.00;;;;;;;29.83;18.28;102033.25;703664;28;1270;-79
2023/05/17 12:23:55;;;;;;;3.85;2.00;;;;;;;29.46;18.25;102016.53;704233;28;918;-79
2023/05/17 12:24:16;;;;;;;5.13;2.00;;;;;;;29.21;18.50;102024.47;701540;28;1534;-79
2023/05/17 12:24:41;;;;;;;5.80;2.00;;;;;;;28.89;18.70;102021.81;706819;28;1051;-79
2023/05/17 12:25:02;;;;;;;5.90;1.88;;;;;;;28.73;18.15;102032.13;704293;28;1023;-79
2023/05/17 12:25:28;;;;;;;5.32;2.00;;;;;;;28.48;18.58;102024.78;698429;28;1217;-77
2023/05/17 12:25:49;;;;;;;4.35;2.00;;;;;;;28.14;18.55;102018.47;698559;28;910;-78
2023/05/17 12:26:14;;;;;;;4.47;2.00;;;;;;;27.95;18.73;102030.63;698666;28;1122;-79
2023/05/17 12:26:42;;;;;;;6.50;1.90;;;;;;;27.61;18.86;102024.28;696172;28;1074;-79
2023/05/17 12:27:05;;;;;;;7.65;1.90;;;;;;;27.43;19.16;102022.91;696947;28;1114;-79
2023/05/17 12:27:26;;;;;;;5.50;1.80;;;;;;;27.41;19.12;102025.59;696690;28;1127;-79
2023/05/17 12:27:46;;;;;;;4.75;1.70;;;;;;;27.42;19.35;102023.81;696789;28;1075;-79
2023/05/17 12:28:21;;;;;;;5.43;1.80;;;;;;;27.75;19.67;102035.56;699608;28;1037;-78
2023/05/17 12:28:52;;;;;;;7.43;2.00;;;;;;;27.99;20.27;102019.78;699431;28;1122;-79
2023/05/17 12:29:14;;;;;;;6.35;1.80;;;;;;;28.20;20.06;102028.16;696728;28;1047;-79
2023/05/17 12:29:35;;;;;;;5.15;1.50;;;;;;;28.40;19.98;102035.69;696490;28;1048;-79
2023/05/17 12:29:56;;;;;;;3.72;1.70;;;;;;;28.54;19.93;102031.75;702389;28;866;-79
2023/05/17 12:30:17;;;;;;;3.80;1.70;;;;;;;28.68;19.82;102021.50;702164;28;1147;-79
2023/05/17 12:30:38;;;;;;;4.00;1.80;;;;;;;28.81;19.79;102046.19;702017;28;1140;-79
2023/05/17 12:31:03;;;;;;;4.43;1.80;;;;;;;28.92;19.79;102032.50;699576;28;1157;-78
2023/05/17 12:31:29;;;;;;;4.03;1.80;;;;;;;29.08;19.65;102029.34;699565;28;1047;-78
2023/05/17 12:31:52;;;;;;;3.63;1.83;;;;;;;29.47;19.65;102031.72;699535;28;1392;-79
2023/05/17 12:32:13;;;;;;;4.55;1.90;;;;;;;29.74;19.18;102029.06;699578;28;1119;-79
2023/05/17 12:32:34;;;;;;;4.90;1.80;;;;;;;30.14;19.08;102023.25;699739;28;991;-78
2023/05/17 12:32:55;;;;;;;5.18;1.90;;;;;;;30.49;18.78;102019.28;696895;28;1179;-79
2023/05/17 12:33:16;;;;;;;5.25;1.85;;;;;;;30.85;18.85;102036.84;699445;28;1108;-78
2023/05/17 12:33:39;;;;;;;5.90;1.87;;;;;;;31.09;18.17;102033.28;699341;28;1102;-80
2023/05/17 12:34:03;;;;;;;6.30;1.88;;;;;;;31.14;17.78;102040.28;696821;28;827;-80
2023/05/17 12:34:24;;;;;;;6.72;1.92;;;;;;;31.10;17.78;102030.50;699371;28;1082;-79
2023/05/17 12:34:46;;;;;;;5.95;1.70;;;;;;;31.11;18.11;102026.84;702191;28;1906;-79
2023/05/17 12:35:08;;;;;;;4.97;1.50;;;;;;;31.24;18.37;102035.41;702250;28;1208;-79
2023/05/17 12:35:28;;;;;;;4.72;1.60;;;;;;;31.30;18.27;102031.56;699291;28;1219;-79
2023/05/17 12:35:50;;;;;;;4.25;1.70;;;;;;;31.48;18.18;102035.34;696673;28;1083;-78
2023/05/17 12:36:11;;;;;;;4.50;2.00;;;;;;;31.79;17.99;102030.50;696621;28;1246;-78
2023/05/17 12:36:48;;;;;;;4.18;1.88;;;;;;;32.17;17.99;102025.25;702289;28;826;-78
2023/05/17 12:37:11;;;;;;;4.50;1.73;;;;;;;32.42;17.51;102022.38;702271;28;1118;-79
2023/05/17 12:37:32;;;;;;;5.18;2.05;;;;;;;32.66;17.08;102026.72;702353;28;959;-79
2023/05/17 12:37:53;;;;;;;4.47;1.90;;;;;;;32.76;17.36;102029.91;699485;28;1136;-79
2023/05/17 12:38:15;;;;;;;4.30;1.80;;;;;;;32.86;17.15;102039.31;696876;28;1099;-80
2023/05/17 12:38:38;;;;;;;3.30;1.60;;;;;;;32.95;16.95;102029.91;699311;28;1083;-79
2023/05/17 12:39:00;;;;;;;3.28;1.70;;;;;;;32.85;16.44;102029.47;705196;28;1202;-79
2023/05/17 12:39:22;;;;;;;4.40;1.90;;;;;;;32.67;16.56;102036.56;702181;28;1160;-78
2023/05/17 12:39:43;;;;;;;5.38;1.70;;;;;;;32.38;16.36;102034.25;699335;28;1096;-79
2023/05/17 12:40:05;;;;;;;5.53;1.80;;;;;;;32.11;16.21;102022.81;693919;28;974;-79
2023/05/17 12:40:26;;;;;;;4.95;1.90;;;;;;;31.69;16.29;102017.41;693851;28;1141;-79
2023/05/17 12:40:47;;;;;;;5.30;2.17;;;;;;;31.09;16.56;102020.66;696722;28;1229;-79
2023/05/17 12:41:11;;;;;;;5.87;2.10;;;;;;;30.43;17.20;102032.13;696889;28;1106;-79
2023/05/17 12:41:32;;;;;;;5.18;1.90;;;;;;;29.72;17.86;102025.53;691091;28;1076;-79
2023/05/17 12:41:53;;;;;;;5.65;1.80;;;;;;;29.15;18.29;102017.47;702282;28;1195;-80
2023/05/17 12:42:14;;;;;;;5.47;1.90;;;;;;;28.64;18.87;102033.25;702199;28;1026;-79
2023/05/17 12:42:34;;;;;;;6.30;2.15;;;;;;;28.15;19.09;102033.66;702099;28;1122;-78
2023/05/17 12:43:05;;;;;;;5.17;2.00;;;;;;;27.58;19.33;102029.69;699478;28;1361;-80
2023/05/17 12:43:27;;;;;;;3.97;1.73;;;;;;;27.20;19.53;102051.09;699414;28;1075;-79
2023/05/17 12:43:48;;;;;;;3.08;1.63;;;;;;;26.82;20.04;102038.44;691238;28;1144;-79
2023/05/17 12:44:10;;;;;;;3.47;1.90;;;;;;;26.59;20.45;102030.00;696678;28;1321;-80
2023/05/17 12:44:31;;;;;;;3.83;1.90;;;;;;;26.49;20.85;102040.91;700796;28;1082;-80
2023/05/17 12:44:52;;;;;;;3.92;1.85;;;;;;;26.24;20.74;102033.28;698963;28;1485;-78
2023/05/17 12:45:13;;;;;;;3.15;1.58;;;;;;;26.03;21.36;102028.31;696759;28;1097;-79
2023/05/17 12:45:33;;;;;;;3.50;1.80;;;;;;;25.82;21.32;102027.81;699275;28;1145;-79
2023/05/17 12:46:01;;;;;;;3.22;1.63;;;;;;;25.59;21.77;102045.03;694103;28;960;-78
2023/05/17 12:46:22;;;;;;;3.38;1.80;;;;;;;25.26;21.67;102032.16;693942;28;1283;-79
2023/05/17 12:46:43;;;;;;;4.40;1.73;;;;;;;24.95;21.74;102043.19;699445;28;1008;-77
2023/05/17 12:47:04;;;;;;;5.70;2.10;;;;;;;24.60;21.95;102031.16;696583;28;1107;-78
2023/05/17 12:47:30;;;;;;;6.60;2.10;;;;;;;24.20;22.13;102035.97;699372;28;1235;-80
2023/05/17 12:47:51;;;;;;;4.60;2.10;;;;;;;23.85;22.64;102036.28;705178;28;1206;-78
2023/05/17 12:48:12;;;;;;;4.05;1.90;;;;;;;23.53;23.02;102048.88;699459;28;999;-79
2023/05/17 12:48:36;;;;;;;4.57;1.98;;;;;;;23.16;23.40;102041.97;693643;28;1102;-79
2023/05/17 12:49:04;;;;;;;6.40;2.00;;;;;;;22.79;23.72;102045.63;696733;28;1326;-79
2023/05/17 12:49:25;;;;;;;6.97;2.00;;;;;;;22.57;24.17;102050.13;693756;28;1157;-79
2023/05/17 12:49:55;;;;;;;5.97;1.80;;;;;;;22.20;24.40;102043.06;696860;28;1182;-79
2023/05/17 12:50:30;;;;;;;4.60;1.70;;;;;;;22.04;24.77;102048.38;702079;28;1017;-82
2023/05/17 12:50:51;;;;;;;6.00;2.10;;;;;;;21.77;25.11;102038.63;702378;28;1256;-79
2023/05/17 12:51:21;;;;;;;4.97;2.03;;;;;;;21.70;25.13;102045.69;691191;28;1152;-79
2023/05/17 12:51:44;;;;;;;3.60;1.90;;;;;;;21.61;25.04;102022.66;693797;28;1074;-79
2023/05/17 12:52:05;;;;;;;3.23;1.90;;;;;;;21.71;25.06;102030.63;691310;28;1058;-79
2023/05/17 12:52:32;;;;;;;3.53;1.92;;;;;;;21.97;25.17;102035.06;693752;28;1279;-79
2023/05/17 12:52:53;;;;;;;4.15;2.20;;;;;;;22.23;24.85;102021.78;699498;28;901;-78
2023/05/17 12:53:14;;;;;;;4.23;2.10;;;;;;;22.70;24.55;102030.56;699560;28;1272;-79
2023/05/17 12:53:39;;;;;;;5.00;2.00;;;;;;;23.34;24.11;102040.09;699393;28;1020;-79
2023/05/17 12:54:00;;;;;;;6.53;2.10;;;;;;;24.01;23.84;102032.59;696803;28;1020;-79
2023/05/17 12:54:28;;;;;;;6.95;2.30;;;;;;;24.56;23.56;102035.66;699312;28;1225;-79
2023/05/17 12:54:49;;;;;;;6.15;2.50;;;;;;;24.95;23.11;102029.84;702097;28;1910;-79
2023/05/17 12:55:12;;;;;;;5.93;2.38;;;;;;;25.37;22.85;102044.50;702260;28;1224;-79
2023/05/17 12:55:36;;;;;;;6.05;2.10;;;;;;;25.68;22.11;102027.97;693711;28;1132;-79
2023/05/17 12:55:57;;;;;;;5.35;2.03;;;;;;;25.78;21.27;102018.03;699475;28;1237;-79
2023/05/17 12:56:21;;;;;;;5.25;2.10;;;;;;;25.83;20.99;102037.56;702073;28;1258;-79
2023/05/17 12:56:45;;;;;;;4.78;2.30;;;;;;;25.73;21.04;102020.75;702007;28;1382;-79
2023/05/17 12:57:17;;;;;;;4.60;2.00;;;;;;;25.78;21.64;102015.38;696655;28;2065;-80
2023/05/17 12:57:37;;;;;;;4.50;2.03;;;;;;;26.03;21.63;102036.34;699208;28;1144;-79
2023/05/17 12:58:01;;;;;;;5.60;2.08;;;;;;;26.38;21.84;102032.16;699501;28;1231;-79
2023/05/17 12:58:22;;;;;;;5.82;1.90;;;;;;;26.60;21.52;102013.91;702127;28;1113;-79
2023/05/17 12:58:46;;;;;;;5.60;1.80;;;;;;;26.99;21.01;102039.94;702123;28;1068;-78
2023/05/17 12:59:15;;;;;;;5.43;1.97;;;;;;;27.23;21.04;102033.16;699413;28;1266;-80
2023/05/17 12:59:45;;;;;;;5.40;2.13;;;;;;;27.29;20.02;102018.75;699151;28;1244;-80
2023/05/17 13:00:09;;;;;;;5.18;2.10;;;;;;;27.46;20.31;102015.66;699472;28;1214;-79
2023/05/17 13:00:30;;;;;;;5.63;2.10;;;;;;;27.73;20.05;102017.75;698538;28;1593;-80
2023/05/17 13:01:06;;;;;;;6.07;2.00;;;;;;;27.88;19.43;102036.16;696496;28;1506;-80
2023/05/17 13:01:32;;;;;;;7.25;2.20;;;;;;;27.71;19.43;102030.34;693771;28;1075;-80
2023/05/17 13:01:56;;;;;;;5.70;2.10;;;;;;;27.46;19.51;102022.81;697546;28;1089;-79
2023/05/17 13:02:21;;;;;;;3.03;1.80;;;;;;;27.40;19.84;102031.03;698023;28;1091;-79
2023/05/17 13:02:41;;;;;;;3.20;1.90;;;;;;;27.24;20.28;102036.75;703366;28;1164;-79
2023/05/17 13:03:08;;;;;;;3.45;1.90;;;;;;;26.91;20.25;102020.44;699409;28;910;-79
2023/05/17 13:03:29;;;;;;;5.45;2.00;;;;;;;26.48;20.17;102025.75;701866;28;1305;-79
2023/05/17 13:03:50;;;;;;;5.03;2.00;;;;;;;26.04;20.79;102020.28;695624;28;1506;-79
2023/05/17 13:04:12;;;;;;;5.13;2.00;;;;;;;25.63;21.32;102022.69;693877;28;1270;-79
2023/05/17 13:04:35;;;;;;;4.85;2.00;;;;;;;25.23;21.71;102023.28;701840;28;1377;-77
2023/05/17 13:04:56;;;;;;;6.20;1.90;;;;;;;24.70;22.04;102015.94;701415;28;1482;-79
2023/05/17 13:05:17;;;;;;;6.93;2.00;;;;;;;24.37;22.54;102019.81;702104;28;1011;-80
2023/05/17 13:05:40;;;;;;;6.35;1.80;;;;;;;24.09;22.73;102029.84;699200;28;1356;-80
2023/05/17 13:06:08;;;;;;;5.63;2.03;;;;;;;23.85;22.96;102033.59;702235;28;1301;-80
2023/05/17 13:06:41;;;;;;;4.43;2.00;;;;;;;23.52;23.42;102024.03;701842;28;2009;-79
2023/05/17 13:07:04;;;;;;;6.75;2.08;;;;;;;23.27;23.82;102040.16;701906;28;1031;-79
2023/05/17 13:07:24;;;;;;;7.13;2.15;;;;;;;23.01;24.22;102026.97;699210;28;1229;-79
2023/05/17 13:07:45;;;;;;;6.67;2.40;;;;;;;22.98;24.20;102034.91;702049;28;1465;-79
2023/05/17 13:08:18;;;;;;;7.28;2.67;;;;;;;22.81;24.25;102027.00;699340;28;1209;-80
2023/05/17 13:08:39;;;;;;;6.55;2.35;;;;;;;22.79;24.40;102031.47;699075;28;1083;-78
2023/05/17 13:09:00;;;;;;;5.43;2.03;;;;;;;22.78;24.53;102029.66;702205;28;1084;-79
2023/05/17 13:09:23;;;;;;;4.88;2.15;;;;;;;22.82;24.62;102044.75;701975;28;1483;-79
2023/05/17 13:09:47;;;;;;;5.22;2.20;;;;;;;22.87;24.68;102029.66;696508;28;1158;-79
2023/05/17 13:10:27;;;;;;;6.28;2.30;;;;;;;23.41;24.39;102041.84;704454;28;1239;-79
2023/05/17 13:10:47;;;;;;;5.57;2.00;;;;;;;23.64;24.15;102039.06;700715;28;1986;-83
2023/05/17 13:11:13;;;;;;;5.70;1.92;;;;;;;23.47;24.51;102020.50;699388;28;1154;-86
2023/05/17 13:11:39;;;;;;;6.55;2.10;;;;;;;23.44;24.38;102036.53;699029;28;1190;-84